Gretna, Louisiana
Current Conditions -  °F | °C
As of 6:55 AM on Friday 24 Oct 2014 (Local Time) from KVSH Reporting Station
Clear Clear  
Wind Chill: 59°   Ceiling: Unl
Heat Index: 59°   Visibility: 10mi
Dew Point: 46°   Wind: 3mph
Humidity: 63%   Direction: 30°NNE
Pressure: 30.09"   Gusts: NA
Location:  29.92°N, 90.06°W
Report Text: KVSH 241155Z AUTO 03003KT 10SM CLR 15/08 A3009 RMK AO1 10180 20150 54000
Loading
Personal Weather Stations






























Interactive Weather Map
Tropical Storm Tracking
New forecast layout! Learn more

10-Day Weather Forecast

Advertisements
Track Severe Weather on mobile